Time;durP1;ratioP1;P1;durP2;ratioP2;P2;SDS_P1;SDS_P2;PMS_P1;PMS_P2;Temp;Humidity;BMP_temperature;BMP_pressure;BME280_temperature;BME280_humidity;BME280_pressure;Samples;Min_cycle;Max_cycle;Signal;HPM_P1;HPM_P2
2022/05/14 00:01:31;;;;;;;8.70;2.05;;;;;;;16.69;51.09;101047.59;4159967;28;20045;-70
2022/05/14 00:03:38;;;;;;;5.07;2.15;;;;;;;16.70;51.33;101049.31;4157541;28;20038;-70
2022/05/14 00:05:42;;;;;;;8.88;2.03;;;;;;;16.67;50.78;101040.56;4161254;28;20041;-70
2022/05/14 00:07:44;;;;;;;5.07;1.67;;;;;;;16.65;50.80;101047.59;4163563;28;20045;-69
2022/05/14 00:09:54;;;;;;;6.97;1.95;;;;;;;16.66;50.45;101052.84;4157684;28;20331;-69
2022/05/14 00:14:18;;;;;;;5.70;1.60;;;;;;;16.61;50.29;101053.72;4173856;28;20129;-69
2022/05/14 00:16:24;;;;;;;6.22;1.70;;;;;;;16.60;50.44;101047.56;4157999;28;20045;-70
2022/05/14 00:18:28;;;;;;;7.50;2.10;;;;;;;16.58;50.54;101044.09;4164389;28;20117;-71
2022/05/14 00:20:32;;;;;;;6.55;1.80;;;;;;;16.57;50.96;101044.97;4164743;28;20410;-70
2022/05/14 00:22:35;;;;;;;8.77;1.98;;;;;;;16.50;51.30;101046.72;4161412;28;20053;-71
2022/05/14 00:24:38;;;;;;;4.85;1.67;;;;;;;16.49;51.14;101055.47;4161535;28;20116;-71
2022/05/14 00:26:41;;;;;;;5.25;1.85;;;;;;;16.46;52.06;101041.50;4157878;28;20121;-71
2022/05/14 00:28:44;;;;;;;7.32;2.10;;;;;;;16.49;51.78;101041.50;4163505;28;20140;-71
2022/05/14 00:30:47;;;;;;;5.82;1.67;;;;;;;16.46;51.53;101044.13;4164423;28;20060;-70
2022/05/14 00:32:53;;;;;;;6.35;2.53;;;;;;;16.36;51.99;101038.84;4164794;28;20033;-70
2022/05/14 00:34:56;;;;;;;4.90;2.17;;;;;;;16.33;51.50;101044.09;4148705;28;20163;-71
2022/05/14 00:37:00;;;;;;;6.28;2.30;;;;;;;16.28;51.81;101045.88;4149973;28;20389;-70
2022/05/14 00:39:04;;;;;;;6.25;2.38;;;;;;;16.26;52.48;101044.13;4166386;28;20561;-71
2022/05/14 00:41:08;;;;;;;4.80;1.80;;;;;;;16.11;53.09;101040.59;4164720;28;20042;-71
2022/05/14 00:43:12;;;;;;;5.47;1.80;;;;;;;16.13;53.87;101048.47;4165036;28;20041;-71
2022/05/14 00:45:16;;;;;;;4.72;2.05;;;;;;;16.14;53.53;101042.38;4164262;28;20149;-70
2022/05/14 00:47:19;;;;;;;;;;;;;;;15.93;53.66;101044.09;4165052;28;20050;-70
2022/05/14 00:49:25;;;;;;;6.40;1.92;;;;;;;16.07;53.41;101038.84;4155435;28;20327;-70
2022/05/14 00:51:29;;;;;;;5.65;1.90;;;;;;;16.15;53.41;101041.47;4174688;28;20053;-70
2022/05/14 00:53:37;;;;;;;3.67;2.20;;;;;;;16.21;53.25;101036.25;4161601;28;20044;-70
2022/05/14 00:55:44;;;;;;;4.85;1.98;;;;;;;16.19;53.60;101045.84;4178912;28;20040;-70
2022/05/14 00:57:47;;;;;;;4.15;2.15;;;;;;;16.17;53.43;101047.59;4175458;28;20115;-70
2022/05/14 00:59:52;;;;;;;4.07;2.20;;;;;;;16.11;52.72;101039.75;4145579;28;20045;-70
2022/05/14 01:01:58;;;;;;;3.97;1.98;;;;;;;16.02;53.30;101051.09;4161065;28;20037;-71
2022/05/14 01:04:01;;;;;;;3.85;1.52;;;;;;;16.01;52.65;101044.09;4163301;28;20037;-70
2022/05/14 01:06:09;;;;;;;3.53;1.88;;;;;;;16.02;52.74;101048.47;4162088;28;20045;-71
2022/05/14 01:08:12;;;;;;;3.35;1.88;;;;;;;15.91;54.17;101045.81;4163593;28;20034;-72
2022/05/14 01:10:16;;;;;;;6.28;2.55;;;;;;;15.89;54.87;101052.81;4147759;28;20115;-72
2022/05/14 01:12:22;;;;;;;5.43;2.10;;;;;;;15.85;53.77;101040.56;4164674;28;20037;-72
2022/05/14 01:14:25;;;;;;;5.38;1.67;;;;;;;15.79;55.57;101041.44;4163904;28;20069;-72
2022/05/14 01:16:32;;;;;;;5.45;1.95;;;;;;;15.75;54.88;101044.03;4160075;28;20038;-71
2022/05/14 01:18:36;;;;;;;3.63;1.73;;;;;;;15.77;54.61;101042.25;4162817;28;20033;-72
2022/05/14 01:20:42;;;;;;;6.43;2.08;;;;;;;15.75;54.27;101041.41;4163150;28;20068;-72
2022/05/14 01:22:59;;;;;;;6.30;1.90;;;;;;;15.72;54.43;101039.63;4156946;28;20049;-72
2022/05/14 01:27:33;;;;;;;5.20;2.08;;;;;;;15.67;54.67;101050.13;4162777;28;20041;-71
2022/05/14 01:29:37;;;;;;;3.83;1.67;;;;;;;15.65;55.55;101045.72;4162245;28;20060;-71
2022/05/14 01:31:44;;;;;;;4.72;1.60;;;;;;;15.60;55.10;101048.34;4158160;28;20045;-71
2022/05/14 01:33:47;;;;;;;3.50;2.05;;;;;;;15.61;55.40;101050.09;4159085;28;20187;-71
2022/05/14 01:35:50;;;;;;;7.65;1.92;;;;;;;15.60;54.96;101045.72;4163020;28;20033;-71
2022/05/14 01:37:55;;;;;;;5.32;1.80;;;;;;;15.57;54.31;101050.09;4160734;28;20042;-71
2022/05/14 01:39:58;;;;;;;2.85;1.55;;;;;;;15.46;54.67;101045.69;4155816;28;20471;-71
2022/05/14 01:42:01;;;;;;;4.22;1.30;;;;;;;15.40;54.41;101048.28;4163976;28;20037;-71
2022/05/14 01:44:07;;;;;;;3.38;1.67;;;;;;;15.41;54.42;101043.94;4161793;28;20048;-71
2022/05/14 01:46:10;;;;;;;3.40;1.50;;;;;;;15.44;54.01;101046.56;4160617;28;20049;-71
2022/05/14 01:48:13;;;;;;;5.72;1.70;;;;;;;15.45;54.35;101038.69;4157327;28;20041;-71
2022/05/14 01:50:16;;;;;;;3.25;2.00;;;;;;;15.41;53.49;101051.78;4156562;28;20082;-71
2022/05/14 01:52:19;;;;;;;4.60;1.80;;;;;;;15.34;54.31;101037.78;4154880;28;20049;-71
2022/05/14 01:54:22;;;;;;;2.47;1.45;;;;;;;15.35;54.77;101040.41;4161714;28;20204;-71
2022/05/14 01:56:25;;;;;;;4.03;1.88;;;;;;;15.35;55.25;101040.41;4156746;28;20065;-71
2022/05/14 01:58:38;;;;;;;3.28;1.50;;;;;;;15.31;54.96;101043.00;4158642;28;20038;-71
2022/05/14 02:00:50;;;;;;;4.47;1.38;;;;;;;15.29;55.14;101040.38;4154286;28;20071;-71
2022/05/14 02:02:58;;;;;;;5.57;1.85;;;;;;;15.30;54.93;101041.25;4145446;28;20034;-71
2022/05/14 02:05:01;;;;;;;4.07;1.95;;;;;;;15.29;55.36;101043.00;4155933;28;20095;-71
2022/05/14 02:07:06;;;;;;;;;;;;;;;14.98;55.63;101041.97;4160897;28;20046;-71
2022/05/14 02:09:12;;;;;;;3.38;1.50;;;;;;;15.04;55.59;101044.63;4155773;28;19964;-71
2022/05/14 02:11:18;;;;;;;3.22;1.73;;;;;;;15.05;55.95;101040.28;4159425;28;20052;-71
2022/05/14 02:13:25;;;;;;;6.03;2.45;;;;;;;15.00;56.00;101043.72;4162838;28;20057;-72
2022/05/14 02:15:28;;;;;;;7.68;1.88;;;;;;;15.00;56.45;101048.09;4156364;28;20050;-72
2022/05/14 02:17:33;;;;;;;8.18;1.75;;;;;;;15.08;55.89;101042.91;4143647;28;20141;-71
2022/05/14 02:19:36;;;;;;;5.88;1.92;;;;;;;15.04;56.11;101039.41;4161986;28;20048;-71
2022/05/14 02:21:40;;;;;;;6.10;2.17;;;;;;;14.98;56.40;101040.25;4161674;28;20041;-72
2022/05/14 02:23:45;;;;;;;3.58;1.90;;;;;;;15.00;56.76;101045.47;4146400;28;20454;-72
2022/05/14 02:25:48;;;;;;;2.13;1.50;;;;;;;14.93;56.73;101041.94;4159341;28;20100;-72
2022/05/14 02:27:51;;;;;;;4.30;2.03;;;;;;;14.86;57.26;101034.91;4159978;28;20033;-72
2022/05/14 02:29:57;;;;;;;4.07;1.63;;;;;;;14.87;57.39;101035.81;4160019;28;20073;-72
2022/05/14 02:32:00;;;;;;;8.52;2.17;;;;;;;14.89;56.92;101040.16;4159537;28;20487;-72
2022/05/14 02:34:04;;;;;;;2.90;1.40;;;;;;;14.89;56.90;101039.31;4146249;28;20072;-72
2022/05/14 02:36:08;;;;;;;;;;;;;;;14.64;58.15;101037.41;4146287;28;20084;-72
2022/05/14 02:38:12;;;;;;;4.20;1.58;;;;;;;14.72;57.83;101031.34;4160889;28;20460;-72
2022/05/14 02:40:15;;;;;;;;;;;;;;;14.58;58.76;101037.31;4162466;28;20029;-72
2022/05/14 02:42:18;;;;;;;3.17;1.83;;;;;;;14.71;57.91;101038.31;4157061;28;19921;-72
2022/05/14 02:44:22;;;;;;;;;;;;;;;14.55;58.78;101033.84;4153201;28;20057;-72
2022/05/14 02:46:27;;;;;;;3.28;1.80;;;;;;;14.66;58.02;101043.53;4161348;28;19972;-72
2022/05/14 02:48:30;;;;;;;5.50;1.85;;;;;;;14.74;58.11;101042.72;4161551;28;20042;-72
2022/05/14 02:50:35;;;;;;;5.85;1.70;;;;;;;14.78;58.08;101039.25;4160869;28;20125;-72
2022/05/14 02:52:38;;;;;;;4.70;1.80;;;;;;;14.72;58.47;101047.94;4159904;28;20470;-71
2022/05/14 02:54:42;;;;;;;5.65;1.65;;;;;;;14.67;58.84;101049.63;4162083;28;20049;-71
2022/05/14 02:56:45;;;;;;;3.20;1.60;;;;;;;14.64;58.87;101050.47;4161981;28;20037;-71
2022/05/14 03:01:09;;;;;;;6.30;1.98;;;;;;;14.51;59.10;101053.84;4154176;28;20582;-71
2022/05/14 03:03:12;;;;;;;3.88;1.88;;;;;;;14.42;59.55;101056.41;4160821;28;20105;-71
2022/05/14 03:05:17;;;;;;;7.38;2.22;;;;;;;14.43;59.72;101053.78;4156333;28;20518;-71
2022/05/14 03:07:22;;;;;;;5.00;1.75;;;;;;;14.51;59.97;101061.69;4149500;28;20038;-71
2022/05/14 03:09:24;;;;;;;;;;;;;;;14.30;60.87;101063.28;4156560;28;20526;-71
2022/05/14 03:11:29;;;;;;;4.45;1.65;;;;;;;14.33;59.79;101059.81;4161520;28;20008;-71
2022/05/14 03:13:31;;;;;;;3.88;1.95;;;;;;;14.40;59.93;101058.16;4159685;28;20041;-71
2022/05/14 03:15:34;;;;;;;4.38;1.85;;;;;;;14.42;60.61;101054.66;4157297;28;20414;-71
2022/05/14 03:17:38;;;;;;;4.03;1.90;;;;;;;14.41;60.32;101057.25;4162102;28;20412;-71
2022/05/14 03:19:41;;;;;;;8.32;2.00;;;;;;;14.42;60.83;101054.66;4152451;28;20088;-71
2022/05/14 03:21:44;;;;;;;9.02;2.13;;;;;;;14.39;61.51;101065.09;4160582;28;20057;-71
2022/05/14 03:23:49;;;;;;;6.30;1.90;;;;;;;14.39;61.17;101056.38;4156866;28;20188;-72
2022/05/14 03:25:52;;;;;;;4.25;1.75;;;;;;;14.39;61.15;101048.53;4157730;28;20042;-72
2022/05/14 03:27:55;;;;;;;6.53;2.03;;;;;;;14.32;61.45;101052.81;4161742;28;20414;-72
2022/05/14 03:29:58;;;;;;;5.53;2.30;;;;;;;14.24;61.68;101050.16;4161245;28;20509;-72
2022/05/14 03:32:01;;;;;;;7.00;1.95;;;;;;;14.14;62.72;101056.16;4172000;28;20068;-71
2022/05/14 03:34:05;;;;;;;5.13;2.15;;;;;;;14.10;62.54;101057.00;4156599;28;20041;-71
2022/05/14 03:36:09;;;;;;;14.40;2.38;;;;;;;14.14;62.68;101056.16;4157311;28;20574;-71
2022/05/14 03:38:12;;;;;;;10.77;2.70;;;;;;;14.17;62.01;101053.56;4161027;28;20376;-71
2022/05/14 03:40:16;;;;;;;10.15;2.63;;;;;;;14.23;62.02;101063.22;4161690;28;20590;-72
2022/05/14 03:42:19;;;;;;;7.93;2.50;;;;;;;14.17;61.47;101063.16;4156397;28;20037;-72
2022/05/14 03:44:22;;;;;;;5.85;2.25;;;;;;;14.16;60.94;101058.78;4162797;28;20041;-72
2022/05/14 03:46:25;;;;;;;9.32;2.13;;;;;;;14.21;61.03;101064.97;4161251;28;20124;-72
2022/05/14 03:48:28;;;;;;;7.85;2.05;;;;;;;14.23;61.38;101069.31;4152535;28;20056;-72
2022/05/14 03:50:31;;;;;;;6.20;1.75;;;;;;;14.21;61.51;101065.81;4159826;28;20037;-72
2022/05/14 03:52:34;;;;;;;5.10;2.03;;;;;;;14.16;61.64;101064.88;4160702;28;20054;-72
2022/05/14 03:54:38;;;;;;;5.93;1.85;;;;;;;14.15;62.31;101068.38;4164809;28;20048;-71
2022/05/14 03:56:42;;;;;;;6.43;2.00;;;;;;;14.07;62.51;101065.69;4159748;28;20041;-72
2022/05/14 03:58:47;;;;;;;6.75;2.08;;;;;;;13.97;63.22;101061.22;4158566;28;20323;-71
2022/05/14 04:00:51;;;;;;;7.88;2.28;;;;;;;13.98;63.55;101068.22;4162458;28;20404;-72
2022/05/14 04:02:54;;;;;;;9.43;2.55;;;;;;;14.02;62.83;101069.09;4162728;28;20045;-71
2022/05/14 04:04:57;;;;;;;6.63;2.28;;;;;;;14.12;62.78;101076.22;4145492;28;20045;-71
2022/05/14 04:07:00;;;;;;;3.33;2.05;;;;;;;14.12;62.65;101074.47;4159953;28;20045;-71
2022/05/14 04:09:03;;;;;;;7.13;1.98;;;;;;;14.17;63.12;101074.50;4164342;28;20419;-71
2022/05/14 04:11:08;;;;;;;4.65;2.03;;;;;;;14.13;62.90;101071.00;4153851;28;20408;-71
2022/05/14 04:13:13;;;;;;;5.53;1.70;;;;;;;14.10;63.18;101067.44;4163551;28;20041;-71
2022/05/14 04:15:16;;;;;;;7.15;2.03;;;;;;;14.03;64.16;101069.16;4164899;28;20092;-71
2022/05/14 04:17:20;;;;;;;5.47;1.73;;;;;;;14.03;63.74;101068.25;4174534;28;20544;-71
2022/05/14 04:19:25;;;;;;;6.25;2.33;;;;;;;14.07;63.87;101077.88;4164796;28;20033;-72
2022/05/14 04:21:28;;;;;;;4.32;1.90;;;;;;;14.12;63.20;101073.59;4164931;28;20042;-72
2022/05/14 04:23:32;;;;;;;5.72;2.65;;;;;;;14.14;63.04;101069.25;4147451;28;20077;-71
2022/05/14 04:25:37;;;;;;;3.92;2.10;;;;;;;14.14;63.20;101074.47;4163529;28;20301;-72
2022/05/14 04:27:41;;;;;;;6.32;2.08;;;;;;;14.12;63.92;101069.22;4160966;28;20041;-71
2022/05/14 04:29:46;;;;;;;5.30;2.30;;;;;;;14.07;64.01;101073.53;4161710;28;20034;-71
2022/05/14 04:31:50;;;;;;;5.32;2.15;;;;;;;14.09;64.48;101071.81;4163937;28;20522;-71
2022/05/14 04:33:53;;;;;;;3.92;1.92;;;;;;;14.17;64.25;101078.88;4160777;28;20088;-71
2022/05/14 04:35:58;;;;;;;5.07;2.37;;;;;;;14.21;64.05;101080.66;4163301;28;20069;-71
2022/05/14 04:38:02;;;;;;;4.78;2.20;;;;;;;14.20;63.93;101079.75;4147815;28;20301;-71
2022/05/14 04:40:07;;;;;;;3.95;1.95;;;;;;;14.18;64.48;101081.50;4146999;28;20069;-71
2022/05/14 04:42:11;;;;;;;7.93;2.42;;;;;;;14.19;64.42;101077.13;4139615;28;20058;-71
2022/05/14 04:44:15;;;;;;;5.22;2.17;;;;;;;14.21;64.56;101081.50;4156415;28;20043;-71
2022/05/14 04:46:20;;;;;;;5.63;2.92;;;;;;;14.28;64.78;101083.31;4164727;28;20037;-72
2022/05/14 04:48:23;;;;;;;7.63;2.50;;;;;;;14.23;64.51;101078.91;4150559;28;20577;-72
2022/05/14 04:50:26;;;;;;;8.18;2.10;;;;;;;14.23;65.12;101074.53;4160925;28;20045;-72
2022/05/14 04:52:29;;;;;;;5.55;2.17;;;;;;;14.21;65.05;101076.28;4165665;28;20517;-72
2022/05/14 04:54:33;;;;;;;4.22;2.13;;;;;;;14.23;65.12;101076.28;4158602;28;20124;-72
2022/05/14 04:56:36;;;;;;;9.82;2.50;;;;;;;14.31;65.28;101080.72;4164304;28;20092;-72
2022/05/14 04:58:39;;;;;;;4.38;1.95;;;;;;;14.37;65.34;101082.53;4163228;28;20129;-72
2022/05/14 05:00:42;;;;;;;4.50;2.13;;;;;;;14.41;65.40;101088.66;4159362;28;20037;-72
2022/05/14 05:05:09;;;;;;;6.18;2.17;;;;;;;14.41;65.19;101088.66;4163050;28;20129;-72
2022/05/14 05:07:13;;;;;;;4.20;2.28;;;;;;;14.52;65.06;101092.25;4160196;28;20043;-72
2022/05/14 05:09:19;;;;;;;7.53;3.13;;;;;;;14.58;64.26;101092.28;4163671;28;20038;-72
2022/05/14 05:11:23;;;;;;;6.47;2.83;;;;;;;14.66;64.22;101095.88;4161572;28;20041;-72
2022/05/14 05:13:29;;;;;;;8.80;3.33;;;;;;;14.66;63.71;101095.88;4158919;28;20041;-72
2022/05/14 05:15:32;;;;;;;7.80;3.63;;;;;;;14.69;63.34;101099.38;4154401;28;20060;-71
2022/05/14 05:17:35;;;;;;;6.70;2.85;;;;;;;14.76;63.46;101102.06;4163006;28;20494;-71
2022/05/14 05:19:39;;;;;;;6.57;3.05;;;;;;;14.86;63.44;101100.38;4164572;28;20045;-71
2022/05/14 05:21:42;;;;;;;7.30;3.78;;;;;;;14.88;62.93;101090.81;4163417;28;20037;-72
2022/05/14 05:23:45;;;;;;;13.27;4.28;;;;;;;14.90;63.01;101099.53;4161587;28;20060;-71
2022/05/14 05:25:49;;;;;;;7.95;3.55;;;;;;;14.89;62.76;101097.75;4157145;28;20038;-71
2022/05/14 05:27:52;;;;;;;8.63;4.35;;;;;;;15.01;63.06;101103.09;4161725;28;20138;-71
2022/05/14 05:29:54;;;;;;;9.02;4.43;;;;;;;15.26;62.55;101102.34;4157365;28;20037;-71
2022/05/14 05:31:57;;;;;;;7.55;3.55;;;;;;;15.42;62.28;101095.44;4162624;28;20041;-71
2022/05/14 05:34:01;;;;;;;7.90;3.55;;;;;;;15.42;61.89;101100.69;4162858;28;20060;-71
2022/05/14 05:36:07;;;;;;;7.50;3.88;;;;;;;15.40;61.09;101102.44;4161256;28;20068;-72
2022/05/14 05:38:11;;;;;;;6.25;3.78;;;;;;;15.36;61.54;101099.78;4165323;28;20037;-72
2022/05/14 05:40:14;;;;;;;6.03;3.83;;;;;;;15.41;61.40;101101.56;4158904;28;20034;-70
2022/05/14 05:42:17;;;;;;;7.00;4.43;;;;;;;15.52;60.83;101099.84;4155927;28;20042;-70
2022/05/14 05:44:20;;;;;;;11.70;4.20;;;;;;;15.65;60.60;101109.53;4151470;28;20125;-71
2022/05/14 05:46:22;;;;;;;8.10;3.83;;;;;;;15.69;60.38;101113.88;4162442;28;20492;-71
2022/05/14 05:48:26;;;;;;;8.32;4.82;;;;;;;15.61;60.56;101099.91;4156937;28;20092;-71
2022/05/14 05:50:29;;;;;;;9.45;4.53;;;;;;;15.53;59.72;101105.09;4163767;28;20041;-71
2022/05/14 05:52:33;;;;;;;9.45;4.43;;;;;;;15.52;60.10;101113.84;4161386;28;20037;-71
2022/05/14 05:56:59;;;;;;;7.03;4.40;;;;;;;15.59;59.54;101114.72;4155334;28;20063;-73
2022/05/14 05:59:03;;;;;;;9.23;5.22;;;;;;;15.65;59.09;101108.63;4158142;28;20505;-71
2022/05/14 06:01:06;;;;;;;10.82;4.45;;;;;;;15.67;59.66;101105.16;4162859;28;20041;-72
2022/05/14 06:03:09;;;;;;;7.93;4.40;;;;;;;15.75;59.61;101112.19;4164491;28;20082;-71
2022/05/14 06:05:13;;;;;;;11.30;4.90;;;;;;;15.79;59.72;101108.72;4161907;28;20046;-72
2022/05/14 06:07:17;;;;;;;15.60;6.05;;;;;;;15.93;57.74;101116.63;4159679;28;20068;-71
2022/05/14 06:09:26;;;;;;;9.65;4.78;;;;;;;15.99;57.75;101112.28;4158484;28;20052;-71
2022/05/14 06:11:30;;;;;;;7.40;4.35;;;;;;;16.03;58.39;101119.28;4156296;28;20475;-71
2022/05/14 06:13:33;;;;;;;8.90;4.90;;;;;;;15.95;58.19;101110.53;4157977;28;20063;-71
2022/05/14 06:15:38;;;;;;;9.82;5.15;;;;;;;16.01;58.18;101109.66;4156152;28;20080;-71
2022/05/14 06:17:42;;;;;;;6.90;4.22;;;;;;;16.07;58.06;101111.44;4162642;28;20140;-71
2022/05/14 06:19:45;;;;;;;8.43;5.68;;;;;;;16.21;56.00;101112.34;4161368;28;20056;-72
2022/05/14 06:21:48;;;;;;;9.77;5.43;;;;;;;16.29;56.12;101109.72;4164666;28;20049;-72
2022/05/14 06:23:51;;;;;;;9.02;4.38;;;;;;;16.35;57.06;101115.84;4153026;28;20034;-72
2022/05/14 06:25:57;;;;;;;9.88;4.75;;;;;;;16.41;56.63;101120.19;4154241;28;20038;-72
2022/05/14 06:28:00;;;;;;;9.55;4.95;;;;;;;16.47;56.12;101119.34;4162921;28;20044;-71
2022/05/14 06:30:03;;;;;;;9.23;4.63;;;;;;;16.50;56.40;101124.56;4160689;28;20041;-71
2022/05/14 06:32:06;;;;;;;7.88;4.55;;;;;;;16.57;56.42;101126.34;4158639;28;20569;-71
2022/05/14 06:34:11;;;;;;;8.13;4.38;;;;;;;16.59;57.08;101129.84;4160924;28;20048;-71
2022/05/14 06:36:16;;;;;;;9.95;5.57;;;;;;;16.64;56.58;101132.47;4163123;28;20129;-71
2022/05/14 06:38:19;;;;;;;9.73;4.13;;;;;;;16.69;56.56;101133.31;4155693;28;20053;-71
2022/05/14 06:40:22;;;;;;;9.43;4.47;;;;;;;16.74;56.52;101129.81;4162456;28;20132;-71
2022/05/14 06:42:26;;;;;;;8.80;4.50;;;;;;;16.80;57.00;101128.09;4155086;28;20044;-71
2022/05/14 06:44:30;;;;;;;8.45;4.32;;;;;;;16.79;55.65;101127.19;4161731;28;20128;-70
2022/05/14 06:46:33;;;;;;;7.55;4.15;;;;;;;16.86;54.34;101126.31;4163016;28;20499;-71
2022/05/14 06:48:37;;;;;;;5.40;3.53;;;;;;;16.92;55.77;101130.72;4162493;28;20045;-71
2022/05/14 06:50:44;;;;;;;9.55;4.30;;;;;;;16.90;54.43;101135.13;4156826;28;20041;-70
2022/05/14 06:52:50;;;;;;;7.55;3.53;;;;;;;16.97;54.88;101130.72;4151923;28;20044;-71
2022/05/14 06:54:55;;;;;;;6.43;3.40;;;;;;;17.03;53.98;101126.34;4160684;28;20124;-70
2022/05/14 06:56:58;;;;;;;8.50;3.03;;;;;;;17.13;53.71;101127.19;4157553;28;20527;-70
2022/05/14 06:59:03;;;;;;;8.82;3.22;;;;;;;17.24;54.27;101141.19;4160315;28;20033;-70
2022/05/14 07:01:06;;;;;;;6.40;3.30;;;;;;;17.28;53.65;101135.03;4161591;28;20045;-70
2022/05/14 07:07:51;;;;;;;8.57;3.85;;;;;;;17.39;52.98;101148.16;4157071;28;20037;-71
2022/05/14 07:09:55;;;;;;;9.95;3.70;;;;;;;17.44;53.06;101142.88;4163518;28;20025;-71
2022/05/14 07:12:03;;;;;;;9.55;4.20;;;;;;;17.43;52.64;101147.28;4163072;28;20048;-71
2022/05/14 07:14:07;;;;;;;10.95;4.00;;;;;;;17.30;52.14;101145.53;4159973;28;20045;-70
2022/05/14 07:16:10;;;;;;;6.93;3.63;;;;;;;17.32;52.25;101143.78;4156609;28;20495;-71
2022/05/14 07:18:13;;;;;;;9.80;3.90;;;;;;;17.29;52.28;101141.19;4161370;28;20154;-71
2022/05/14 07:20:15;;;;;;;8.45;3.28;;;;;;;17.43;51.81;101144.66;4162404;28;20041;-71
2022/05/14 07:22:19;;;;;;;9.73;4.13;;;;;;;17.58;51.30;101141.09;4156116;28;20038;-71
2022/05/14 07:24:24;;;;;;;9.32;3.65;;;;;;;17.72;51.40;101142.78;4147748;28;20046;-71
2022/05/14 07:26:27;;;;;;;9.02;4.18;;;;;;;17.80;50.81;101141.88;4156003;28;20533;-70
2022/05/14 07:28:30;;;;;;;7.32;4.05;;;;;;;17.84;50.60;101142.72;4161341;28;20037;-70
2022/05/14 07:30:36;;;;;;;9.57;4.60;;;;;;;18.00;49.84;101138.28;4156718;28;20034;-70
2022/05/14 07:32:39;;;;;;;9.50;4.60;;;;;;;18.21;48.79;101139.91;4152804;28;20566;-71
2022/05/14 07:34:42;;;;;;;7.93;3.70;;;;;;;18.13;48.90;101142.56;4160455;28;20124;-71
2022/05/14 07:36:51;;;;;;;8.77;3.53;;;;;;;18.15;49.14;101137.34;4154518;28;20487;-71
2022/05/14 07:38:58;;;;;;;8.38;3.28;;;;;;;18.24;48.95;101136.41;4158063;28;20038;-71
2022/05/14 07:41:02;;;;;;;10.90;3.17;;;;;;;18.26;47.38;101132.00;4161010;28;20037;-70
2022/05/14 07:43:09;;;;;;;8.95;2.95;;;;;;;18.24;48.44;101128.50;4155673;28;20132;-71
2022/05/14 07:45:16;;;;;;;8.65;3.20;;;;;;;18.36;48.48;101127.53;4161928;28;20061;-70
2022/05/14 07:47:23;;;;;;;9.48;3.83;;;;;;;18.42;47.09;101127.50;4156002;28;20041;-70
2022/05/14 07:49:27;;;;;;;8.18;2.95;;;;;;;18.54;47.31;101131.78;4161691;28;20048;-70
2022/05/14 07:51:30;;;;;;;8.73;3.10;;;;;;;18.62;46.85;101128.19;4161505;28;20061;-71
2022/05/14 07:53:33;;;;;;;7.22;3.00;;;;;;;18.76;46.67;101120.19;4159934;28;20041;-70
2022/05/14 07:55:36;;;;;;;7.47;3.25;;;;;;;18.87;46.84;101121.88;4158533;28;20037;-70
2022/05/14 07:57:39;;;;;;;10.23;3.07;;;;;;;18.93;46.79;101122.69;4163679;28;20049;-71
2022/05/14 07:59:42;;;;;;;8.77;2.83;;;;;;;19.05;47.74;101121.69;4158544;28;20068;-70
2022/05/14 08:01:45;;;;;;;6.22;2.80;;;;;;;19.15;47.23;101128.59;4163442;28;20065;-70
2022/05/14 08:03:49;;;;;;;9.10;2.90;;;;;;;19.19;47.72;101118.91;4159547;28;20041;-68
2022/05/14 08:05:52;;;;;;;;;;;;;;;19.29;45.74;101123.19;4151578;28;20128;-70
2022/05/14 08:07:55;;;;;;;6.55;3.10;;;;;;;19.43;43.64;101128.28;4160268;28;19943;-70
2022/05/14 08:10:01;;;;;;;10.05;2.92;;;;;;;19.25;44.73;101128.53;4157727;28;20491;-70
2022/05/14 08:12:04;;;;;;;8.60;2.67;;;;;;;19.32;44.53;101132.84;4162490;28;20041;-70
2022/05/14 08:14:07;;;;;;;5.33;2.20;;;;;;;19.25;45.09;101126.75;4161396;28;20104;-70
2022/05/14 08:16:10;;;;;;;6.63;2.28;;;;;;;19.32;44.82;101124.94;4156876;28;20108;-70
2022/05/14 08:18:13;;;;;;;6.32;2.00;;;;;;;19.40;45.31;101120.41;4154326;28;20041;-70
2022/05/14 08:20:17;;;;;;;9.18;2.17;;;;;;;19.58;43.23;101114.06;4161226;28;20069;-71
2022/05/14 08:24:39;;;;;;;11.85;2.10;;;;;;;19.63;43.11;101114.00;4161801;28;20037;-70
2022/05/14 08:26:42;;;;;;;7.38;2.28;;;;;;;19.78;42.56;101112.91;4158686;28;20124;-70
2022/05/14 08:28:45;;;;;;;3.20;2.00;;;;;;;19.72;42.97;101119.16;4159171;28;20121;-70
2022/05/14 08:30:48;;;;;;;7.55;2.03;;;;;;;19.74;44.55;101122.63;4156482;28;20549;-71
2022/05/14 08:32:52;;;;;;;6.28;2.72;;;;;;;19.71;43.82;101122.66;4159304;28;20077;-71
2022/05/14 08:34:55;;;;;;;10.63;2.22;;;;;;;19.75;43.01;101123.53;4163507;28;20045;-70
2022/05/14 08:37:00;;;;;;;7.80;2.88;;;;;;;19.92;41.91;101121.56;4162254;28;20091;-69
2022/05/14 08:39:03;;;;;;;7.70;1.80;;;;;;;19.79;42.13;101120.84;4159184;28;20433;-70
2022/05/14 08:41:06;;;;;;;8.43;2.22;;;;;;;19.86;42.67;101119.88;4161522;28;20183;-68
2022/05/14 08:43:13;;;;;;;7.22;1.98;;;;;;;20.07;41.69;101115.19;4162485;28;20091;-68
2022/05/14 08:45:19;;;;;;;4.03;1.58;;;;;;;19.85;42.18;101119.91;4163714;28;20068;-68
2022/05/14 08:47:29;;;;;;;6.03;2.20;;;;;;;19.87;41.59;101113.72;4150780;28;20137;-68
2022/05/14 08:49:35;;;;;;;6.50;2.70;;;;;;;19.99;42.40;101114.41;4162186;28;20388;-67
2022/05/14 08:51:44;;;;;;;6.30;2.08;;;;;;;20.06;42.85;101116.06;4153369;28;20052;-69
2022/05/14 08:53:50;;;;;;;7.10;1.88;;;;;;;20.13;42.52;101108.94;4159394;28;20033;-69
2022/05/14 08:56:08;;;;;;;9.48;2.88;;;;;;;20.44;41.08;101113.75;4163233;28;20041;-69
2022/05/14 08:58:19;;;;;;;6.28;1.80;;;;;;;20.25;41.92;101115.81;4172925;28;20040;-69
2022/05/14 09:00:23;;;;;;;6.60;2.25;;;;;;;20.25;41.85;101110.53;4166124;28;20046;-69
2022/05/14 09:02:30;;;;;;;5.78;2.05;;;;;;;20.34;42.83;101113.00;4155167;28;20044;-70
2022/05/14 09:04:32;;;;;;;2.38;1.42;;;;;;;20.53;42.24;101114.47;4164755;28;20145;-69
2022/05/14 09:06:36;;;;;;;5.72;2.10;;;;;;;20.57;41.94;101120.56;4158351;28;20045;-70
2022/05/14 09:08:40;;;;;;;5.65;2.17;;;;;;;20.62;41.77;101107.25;4147706;28;20506;-69
2022/05/14 09:10:59;;;;;;;5.78;1.80;;;;;;;20.59;41.42;101105.56;4158215;28;20063;-64
2022/05/14 09:13:12;;;;;;;6.70;1.75;;;;;;;20.58;40.88;101109.09;4162093;28;20065;-70
2022/05/14 09:15:17;;;;;;;6.53;2.53;;;;;;;20.62;41.50;101107.25;4162762;28;20045;-70
2022/05/14 09:17:22;;;;;;;8.07;2.33;;;;;;;20.68;41.44;101105.44;4157322;28;20047;-71
2022/05/14 09:19:33;;;;;;;6.13;1.98;;;;;;;20.78;40.86;101102.63;4148772;28;20129;-66
2022/05/14 09:21:36;;;;;;;7.32;2.00;;;;;;;20.95;40.42;101102.31;4157904;28;20041;-62
2022/05/14 09:23:42;;;;;;;7.75;1.70;;;;;;;21.00;40.58;101100.47;4157345;28;20088;-65
2022/05/14 09:25:47;;;;;;;4.32;1.48;;;;;;;21.01;40.71;101105.75;4172455;28;20033;-73
2022/05/14 09:27:54;;;;;;;4.20;2.05;;;;;;;21.08;40.74;101099.44;4157324;28;20037;-66
2022/05/14 09:30:03;;;;;;;9.43;1.77;;;;;;;21.08;40.67;101095.91;4157395;28;20132;-73
2022/05/14 09:32:24;;;;;;;7.05;2.13;;;;;;;21.09;40.42;101100.28;4174211;28;20049;-62
2022/05/14 09:34:29;;;;;;;3.15;1.83;;;;;;;21.19;40.49;101106.28;4154633;28;20037;-61
2022/05/14 09:36:36;;;;;;;7.10;2.90;;;;;;;21.43;38.97;101100.47;4154889;28;20037;-63
2022/05/14 09:38:39;;;;;;;4.40;1.38;;;;;;;21.41;40.19;101102.28;4143264;28;20069;-75
2022/05/14 09:40:42;;;;;;;3.45;1.52;;;;;;;21.42;41.06;101095.22;4156750;28;20129;-62
2022/05/14 09:42:48;;;;;;;4.68;1.45;;;;;;;21.51;41.81;101096.84;4173366;28;20041;-68
2022/05/14 09:44:53;;;;;;;5.18;2.10;;;;;;;21.74;39.33;101097.22;4155001;28;20050;-64
2022/05/14 09:47:07;;;;;;;3.95;1.55;;;;;;;21.68;39.54;101093.84;4161949;28;20483;-65
2022/05/14 09:49:18;;;;;;;7.20;1.80;;;;;;;21.77;39.28;101091.88;4160222;28;20384;-69
2022/05/14 09:51:29;;;;;;;4.05;1.52;;;;;;;21.82;40.09;101089.13;4154071;28;20057;-62
2022/05/14 09:53:35;;;;;;;6.80;2.08;;;;;;;21.87;38.94;101091.66;4159832;28;20697;-75
2022/05/14 09:56:04;;;;;;;5.00;1.67;;;;;;;21.96;39.64;101084.38;4151805;28;20038;-62
2022/05/14 09:58:25;;;;;;;5.10;1.77;;;;;;;22.04;40.07;101078.03;4155750;28;20053;-64
2022/05/14 10:00:33;;;;;;;6.30;1.63;;;;;;;22.12;39.04;101082.25;4155209;28;20049;-64